createdAt,value
2018-06-28T00:00:09.227Z,65.36
2018-06-28T00:02:37.620Z,65.18
2018-06-28T00:05:05.971Z,64.37
2018-06-28T00:07:34.315Z,64.72
2018-06-28T00:10:03.373Z,64.85
2018-06-28T00:12:31.730Z,65.12
2018-06-28T00:15:00.097Z,65.36
2018-06-28T00:17:28.426Z,64.91
2018-06-28T00:19:56.780Z,65.49
2018-06-28T00:22:25.127Z,66.36
2018-06-28T00:24:53.506Z,65.55
2018-06-28T00:27:21.859Z,66.27
2018-06-28T00:29:50.220Z,65.66
2018-06-28T00:32:18.571Z,65.53
2018-06-28T00:34:46.896Z,66.50
2018-06-28T00:37:15.247Z,65.94
2018-06-28T00:39:43.609Z,67.08
2018-06-28T00:42:11.954Z,65.31
2018-06-28T00:44:40.310Z,66.74
2018-06-28T00:47:08.719Z,65.09
2018-06-28T00:49:37.067Z,67.55
2018-06-28T00:52:05.413Z,65.64
2018-06-28T00:54:33.792Z,65.78
2018-06-28T00:57:02.173Z,65.82
2018-06-28T00:59:30.515Z,68.29
2018-06-28T01:01:58.916Z,65.90
2018-06-28T01:04:27.265Z,66.25
2018-06-28T01:06:55.590Z,66.47
2018-06-28T01:09:23.952Z,66.07
2018-06-28T01:11:52.300Z,66.70
2018-06-28T01:14:20.625Z,66.64
2018-06-28T01:16:48.976Z,66.88
2018-06-28T01:19:17.307Z,65.77
2018-06-28T01:21:45.634Z,66.80
2018-06-28T01:24:13.974Z,66.82
2018-06-28T01:26:42.343Z,65.78
2018-06-28T01:29:10.692Z,68.25
2018-06-28T01:31:39.047Z,66.37
2018-06-28T01:34:07.409Z,66.64
2018-06-28T01:36:35.762Z,67.27
2018-06-28T01:39:06.756Z,67.53
2018-06-28T01:41:46.353Z,67.60
2018-06-28T01:44:14.720Z,68.45
2018-06-28T01:46:43.077Z,67.31
2018-06-28T01:49:11.450Z,67.37
2018-06-28T01:51:39.817Z,66.99
2018-06-28T01:54:08.171Z,68.00
2018-06-28T01:56:36.522Z,69.15
2018-06-28T01:59:04.836Z,68.46
2018-06-28T02:01:33.173Z,67.88
2018-06-28T02:04:01.501Z,67.29
2018-06-28T02:06:29.828Z,67.77
2018-06-28T02:08:58.160Z,69.32
2018-06-28T02:11:26.492Z,68.75
2018-06-28T02:13:54.818Z,68.09
2018-06-28T02:16:23.183Z,68.15
2018-06-28T02:18:51.540Z,68.47
2018-06-28T02:21:19.852Z,68.52
2018-06-28T02:23:48.180Z,68.25
2018-06-28T02:26:16.574Z,68.64
2018-06-28T02:28:44.888Z,68.61
2018-06-28T02:31:13.211Z,69.25
2018-06-28T02:33:41.528Z,69.90
2018-06-28T02:36:09.871Z,69.03
2018-06-28T02:38:38.209Z,68.37
2018-06-28T02:41:06.728Z,68.62
2018-06-28T02:43:35.072Z,68.76
2018-06-28T02:46:03.472Z,68.67
2018-06-28T02:48:31.816Z,68.17
2018-06-28T02:51:00.153Z,70.08
2018-06-28T02:53:28.488Z,69.52
2018-06-28T02:55:56.829Z,70.14
2018-06-28T02:58:25.173Z,69.48
2018-06-28T03:00:53.510Z,69.88
2018-06-28T03:03:21.885Z,70.64
2018-06-28T03:05:50.218Z,69.40
2018-06-28T03:08:18.544Z,69.77
2018-06-28T03:10:46.976Z,69.77
2018-06-28T03:13:15.345Z,69.60
2018-06-28T03:15:43.710Z,69.92
2018-06-28T03:18:12.176Z,70.52
2018-06-28T03:20:40.515Z,71.61
2018-06-28T03:23:08.830Z,71.82
2018-06-28T03:25:37.175Z,70.97
2018-06-28T03:28:05.523Z,71.08
2018-06-28T03:30:33.841Z,71.00
2018-06-28T03:33:02.185Z,71.44
2018-06-28T03:35:30.594Z,71.03
2018-06-28T03:37:59.043Z,71.25
2018-06-28T03:40:27.287Z,71.08
2018-06-28T03:42:55.635Z,70.80
2018-06-28T03:45:24.060Z,72.47
2018-06-28T03:47:52.420Z,72.57
2018-06-28T03:50:20.769Z,71.41
2018-06-28T03:52:49.114Z,72.88
2018-06-28T03:55:17.429Z,71.02
2018-06-28T03:57:45.785Z,71.31
2018-06-28T04:00:14.116Z,71.61
2018-06-28T04:02:42.483Z,71.51
2018-06-28T04:05:10.839Z,71.44
2018-06-28T04:07:39.165Z,71.43
2018-06-28T04:10:07.513Z,72.19
2018-06-28T04:12:35.870Z,72.95
2018-06-28T04:15:04.245Z,72.79
2018-06-28T04:17:32.567Z,72.35
2018-06-28T04:20:00.920Z,73.79
2018-06-28T04:22:30.613Z,73.46
2018-06-28T04:24:59.455Z,72.76
2018-06-28T04:27:28.578Z,73.12
2018-06-28T04:29:56.860Z,74.18
2018-06-28T04:32:25.469Z,73.35
2018-06-28T04:34:53.810Z,74.02
2018-06-28T04:37:22.120Z,72.90
2018-06-28T04:39:50.453Z,73.41
2018-06-28T04:42:18.790Z,73.37
2018-06-28T04:44:47.160Z,73.14
2018-06-28T04:47:15.483Z,73.40
2018-06-28T04:49:43.984Z,73.50
2018-06-28T04:52:12.349Z,73.91
2018-06-28T04:54:41.496Z,73.67
2018-06-28T04:57:09.965Z,73.05
2018-06-28T04:59:38.316Z,73.42
2018-06-28T05:02:06.880Z,73.66
2018-06-28T05:04:35.252Z,72.94
2018-06-28T05:07:03.607Z,72.78
2018-06-28T05:09:31.945Z,73.17
2018-06-28T05:12:00.285Z,72.57
2018-06-28T05:14:28.649Z,72.28
2018-06-28T05:16:56.996Z,72.71
2018-06-28T05:19:25.334Z,72.07
2018-06-28T05:21:53.664Z,71.80
2018-06-28T05:24:22.020Z,72.03
2018-06-28T05:26:50.356Z,71.84
2018-06-28T05:29:18.832Z,71.63
2018-06-28T05:31:47.085Z,71.31
2018-06-28T05:34:15.460Z,70.74
2018-06-28T05:36:43.809Z,70.84
2018-06-28T05:39:12.516Z,70.36
2018-06-28T05:41:40.873Z,70.12
2018-06-28T05:44:09.215Z,69.84
2018-06-28T05:46:37.565Z,69.49
2018-06-28T05:49:05.939Z,69.59
2018-06-28T05:51:34.297Z,69.31
2018-06-28T05:54:02.702Z,68.85
2018-06-28T05:56:31.050Z,68.00
2018-06-28T05:58:59.383Z,68.66
2018-06-28T06:01:27.954Z,67.98
2018-06-28T06:03:56.468Z,66.32
2018-06-28T06:06:24.844Z,65.97
2018-06-28T06:08:53.240Z,66.14
2018-06-28T06:11:21.600Z,65.31
2018-06-28T06:13:49.934Z,64.81
2018-06-28T06:16:18.289Z,63.75
2018-06-28T06:18:46.666Z,63.53
2018-06-28T06:21:15.015Z,65.26
2018-06-28T06:23:43.391Z,63.09
2018-06-28T06:26:11.804Z,64.01
2018-06-28T06:28:40.184Z,62.29
2018-06-28T06:31:08.525Z,61.72
2018-06-28T06:33:36.900Z,62.01
2018-06-28T06:36:05.628Z,60.93
2018-06-28T06:38:34.034Z,61.62
2018-06-28T06:41:02.427Z,61.91
2018-06-28T06:43:30.793Z,60.24
2018-06-28T06:45:59.246Z,57.51
2018-06-28T06:48:27.591Z,57.76
2018-06-28T06:50:55.936Z,58.48
2018-06-28T06:53:24.322Z,56.32
2018-06-28T06:55:52.687Z,54.79
2018-06-28T06:58:21.465Z,57.89
2018-06-28T07:00:49.828Z,56.63
2018-06-28T07:03:18.175Z,52.34
2018-06-28T07:05:46.511Z,57.64
2018-06-28T07:08:15.482Z,54.93
2018-06-28T07:10:43.824Z,50.49
2018-06-28T07:13:12.168Z,54.99
2018-06-28T07:15:40.557Z,52.41
2018-06-28T07:18:09.023Z,54.64
2018-06-28T07:20:37.388Z,54.72
2018-06-28T07:23:06.085Z,51.63
2018-06-28T07:25:34.436Z,52.23
2018-06-28T07:28:02.739Z,49.84
2018-06-28T07:30:31.096Z,48.93
2018-06-28T07:32:59.483Z,48.59
2018-06-28T07:35:27.903Z,43.74
2018-06-28T07:37:56.268Z,45.24
2018-06-28T07:40:24.862Z,42.84
2018-06-28T07:42:53.366Z,42.34
2018-06-28T07:45:21.724Z,41.46
2018-06-28T07:47:50.089Z,38.96
2018-06-28T07:50:18.462Z,38.17
2018-06-28T07:52:46.883Z,40.98
2018-06-28T07:55:15.291Z,41.08
2018-06-28T07:57:44.192Z,42.11
2018-06-28T08:00:12.540Z,40.15
2018-06-28T08:02:41.019Z,39.15
2018-06-28T08:05:09.391Z,38.89
2018-06-28T08:07:37.730Z,39.62
2018-06-28T08:10:06.086Z,37.28
2018-06-28T08:12:34.435Z,37.16
2018-06-28T08:15:02.839Z,33.33
2018-06-28T08:17:31.191Z,37.25
2018-06-28T08:19:59.522Z,33.65
2018-06-28T08:22:27.892Z,34.46
2018-06-28T08:24:56.357Z,32.55
2018-06-28T08:27:24.709Z,34.21
2018-06-28T08:29:53.099Z,31.81
2018-06-28T08:32:21.457Z,34.87
2018-06-28T08:34:49.840Z,30.42
2018-06-28T08:37:18.207Z,32.47
2018-06-28T08:39:46.634Z,32.37
2018-06-28T08:42:15.014Z,30.05
2018-06-28T08:44:43.352Z,29.00
2018-06-28T08:47:11.709Z,31.04
2018-06-28T08:49:40.077Z,31.57
2018-06-28T08:52:08.477Z,30.59
2018-06-28T08:54:37.152Z,29.73
2018-06-28T08:57:05.528Z,29.63
2018-06-28T08:59:33.895Z,30.12
2018-06-28T09:02:02.287Z,28.41
2018-06-28T09:04:30.860Z,28.65
2018-06-28T09:07:00.037Z,28.19
2018-06-28T09:09:28.418Z,26.73
2018-06-28T09:11:56.765Z,29.19
2018-06-28T09:14:25.175Z,29.32
2018-06-28T09:16:53.552Z,27.62
2018-06-28T09:19:21.901Z,29.90
2018-06-28T09:21:50.312Z,30.13
2018-06-28T09:24:18.664Z,28.57
2018-06-28T09:26:47.032Z,29.11
2018-06-28T09:29:15.417Z,31.09
2018-06-28T09:31:43.763Z,29.02
2018-06-28T09:34:12.220Z,28.40
2018-06-28T09:36:40.656Z,30.87
2018-06-28T09:39:10.327Z,30.26
2018-06-28T09:41:38.675Z,28.53
2018-06-28T09:44:07.119Z,28.50
2018-06-28T09:46:35.465Z,29.15
2018-06-28T09:49:03.888Z,30.22
2018-06-28T09:51:32.214Z,29.82
2018-06-28T09:54:00.575Z,30.54
2018-06-28T09:56:28.950Z,30.12
2018-06-28T09:58:57.331Z,28.79
2018-06-28T10:01:25.712Z,28.03
2018-06-28T10:03:54.158Z,28.50
2018-06-28T10:06:22.569Z,27.82
2018-06-28T10:08:50.921Z,28.90
2018-06-28T10:11:19.308Z,30.25
2018-06-28T10:13:47.670Z,31.69
2018-06-28T10:16:16.051Z,31.15
2018-06-28T10:18:44.492Z,30.73
2018-06-28T10:21:12.948Z,30.47
2018-06-28T10:23:41.327Z,30.83
2018-06-28T10:26:09.668Z,30.60
2018-06-28T10:28:38.024Z,30.81
2018-06-28T10:31:06.427Z,31.05
2018-06-28T10:33:35.197Z,30.42
2018-06-28T10:36:03.596Z,30.86
2018-06-28T10:38:31.974Z,30.89
2018-06-28T10:41:00.337Z,31.34
2018-06-28T10:43:28.696Z,30.78
2018-06-28T10:45:57.051Z,31.52
2018-06-28T10:48:25.418Z,31.34
2018-06-28T10:50:53.770Z,31.98
2018-06-28T10:53:22.147Z,31.34
2018-06-28T10:55:50.975Z,32.76
2018-06-28T10:58:19.492Z,31.82
2018-06-28T11:00:47.863Z,33.37
2018-06-28T11:03:16.212Z,33.85
2018-06-28T11:05:44.656Z,34.37
2018-06-28T11:08:13.119Z,33.86
2018-06-28T11:10:41.516Z,34.80
2018-06-28T11:13:09.862Z,35.17
2018-06-28T11:15:38.302Z,36.04
2018-06-28T11:18:06.698Z,36.41
2018-06-28T11:20:35.071Z,36.18
2018-06-28T11:23:03.473Z,37.49
2018-06-28T11:25:31.896Z,36.52
2018-06-28T11:28:00.300Z,37.65
2018-06-28T11:30:28.687Z,37.39
2018-06-28T11:32:58.155Z,38.03
2018-06-28T11:35:26.630Z,37.56
2018-06-28T11:37:55.054Z,37.68
2018-06-28T11:40:23.442Z,37.48
2018-06-28T11:42:52.184Z,37.34
2018-06-28T11:45:20.559Z,37.44
2018-06-28T11:47:48.979Z,38.90
2018-06-28T11:50:17.354Z,38.08
2018-06-28T11:52:45.706Z,38.47
2018-06-28T11:55:14.060Z,38.72
2018-06-28T11:57:42.624Z,38.36
2018-06-28T12:00:11.092Z,38.85
2018-06-28T12:02:39.456Z,38.80
2018-06-28T12:05:07.795Z,38.94
2018-06-28T12:07:36.218Z,38.94
2018-06-28T12:10:04.940Z,39.62
2018-06-28T12:12:33.250Z,39.21
2018-06-28T12:15:01.595Z,38.87
2018-06-28T12:17:29.970Z,38.49
2018-06-28T12:19:58.385Z,38.40
2018-06-28T12:22:26.811Z,39.25
2018-06-28T12:24:55.131Z,39.49
2018-06-28T12:27:23.457Z,39.38
2018-06-28T12:29:51.775Z,40.17
2018-06-28T12:32:20.119Z,39.75
2018-06-28T12:34:48.464Z,39.44
2018-06-28T12:37:16.805Z,38.74
2018-06-28T12:39:45.164Z,38.23
2018-06-28T12:42:13.522Z,38.98
2018-06-28T12:44:42.009Z,39.38
2018-06-28T12:47:55.982Z,39.24
2018-06-28T12:50:24.331Z,39.02
2018-06-28T12:53:01.967Z,39.25
2018-06-28T12:55:43.180Z,39.52
2018-06-28T12:58:11.543Z,39.92
2018-06-28T13:00:39.934Z,40.11
2018-06-28T13:03:08.272Z,40.39
2018-06-28T13:05:36.609Z,40.09
2018-06-28T13:08:04.961Z,39.04
2018-06-28T13:10:33.343Z,40.10
2018-06-28T13:13:01.692Z,39.34
2018-06-28T13:15:30.057Z,40.39
2018-06-28T13:17:58.419Z,40.55
2018-06-28T13:20:26.819Z,40.24
2018-06-28T13:22:55.179Z,40.57
2018-06-28T13:25:23.519Z,39.50
2018-06-28T13:27:51.879Z,39.96
2018-06-28T13:30:20.258Z,40.16
2018-06-28T13:32:48.608Z,40.38
2018-06-28T13:35:16.925Z,40.20
2018-06-28T13:37:45.278Z,40.78
2018-06-28T13:40:13.746Z,39.98
2018-06-28T13:42:42.066Z,40.10
2018-06-28T13:45:10.411Z,40.17
2018-06-28T13:47:38.787Z,39.51
2018-06-28T13:50:07.168Z,39.59
2018-06-28T13:52:35.547Z,40.35
2018-06-28T13:55:04.003Z,40.45
2018-06-28T13:57:32.430Z,41.52
2018-06-28T14:00:00.748Z,41.11
2018-06-28T14:02:29.095Z,41.68
2018-06-28T14:04:57.435Z,41.00
2018-06-28T14:07:25.764Z,40.45
2018-06-28T14:09:54.148Z,40.86
2018-06-28T14:12:22.560Z,41.05
2018-06-28T14:14:50.994Z,41.52
2018-06-28T14:17:19.432Z,41.14
2018-06-28T14:19:47.843Z,41.78
2018-06-28T14:22:16.254Z,41.62
2018-06-28T14:24:44.590Z,42.10
2018-06-28T14:27:13.836Z,41.82
2018-06-28T14:29:42.207Z,41.39
2018-06-28T14:32:10.539Z,41.38
2018-06-28T14:34:38.904Z,41.34
2018-06-28T14:37:07.327Z,41.58
2018-06-28T14:39:35.664Z,41.70
2018-06-28T14:42:04.132Z,41.41
2018-06-28T14:44:33.121Z,41.55
2018-06-28T14:47:01.484Z,41.13
2018-06-28T14:49:29.852Z,41.01
2018-06-28T14:51:58.217Z,41.80
2018-06-28T14:54:26.566Z,42.85
2018-06-28T14:56:54.988Z,42.89
2018-06-28T14:59:23.428Z,42.48
2018-06-28T15:01:51.774Z,42.89
2018-06-28T15:04:20.136Z,42.84
2018-06-28T15:06:48.501Z,43.46
2018-06-28T15:09:16.851Z,42.47
2018-06-28T15:11:45.333Z,42.82
2018-06-28T15:14:14.013Z,43.28
2018-06-28T15:16:42.387Z,43.57
2018-06-28T15:19:10.775Z,43.36
2018-06-28T15:21:39.187Z,43.37
2018-06-28T15:24:07.517Z,43.69
2018-06-28T15:26:35.963Z,43.39
2018-06-28T15:29:04.441Z,43.80
2018-06-28T15:31:32.783Z,43.58
2018-06-28T15:34:01.175Z,42.67
2018-06-28T15:36:29.553Z,43.23
2018-06-28T15:38:58.200Z,42.73
2018-06-28T15:41:26.566Z,43.40
2018-06-28T15:43:54.933Z,42.85
2018-06-28T15:46:23.576Z,43.54
2018-06-28T15:48:51.947Z,42.96
2018-06-28T15:51:20.313Z,42.70
2018-06-28T15:53:48.771Z,42.81
2018-06-28T15:56:17.145Z,43.20
2018-06-28T15:58:45.500Z,42.53
2018-06-28T16:01:13.856Z,42.31
2018-06-28T16:03:42.520Z,42.59
2018-06-28T16:06:10.878Z,42.51
2018-06-28T16:08:39.367Z,42.36
2018-06-28T16:11:07.742Z,42.68
2018-06-28T16:13:36.114Z,42.60
2018-06-28T16:16:04.491Z,42.24
2018-06-28T16:18:33.282Z,42.14
2018-06-28T16:21:01.641Z,42.59
2018-06-28T16:23:30.034Z,43.02
2018-06-28T16:25:58.414Z,42.56
2018-06-28T16:28:26.797Z,42.08
2018-06-28T16:30:55.173Z,42.78
2018-06-28T16:33:23.568Z,42.25
2018-06-28T16:35:51.933Z,42.51
2018-06-28T16:38:20.282Z,42.45
2018-06-28T16:40:48.817Z,42.97
2018-06-28T16:43:18.021Z,43.21
2018-06-28T16:45:46.376Z,43.05
2018-06-28T16:48:14.734Z,42.93
2018-06-28T16:50:43.100Z,43.00
2018-06-28T16:53:11.486Z,43.05
2018-06-28T16:55:40.122Z,43.02
2018-06-28T16:58:09.303Z,43.03
2018-06-28T17:00:37.671Z,42.63
2018-06-28T17:03:06.075Z,43.29
2018-06-28T17:05:34.555Z,42.85
2018-06-28T17:08:03.019Z,43.22
2018-06-28T17:10:31.395Z,42.96
2018-06-28T17:12:59.747Z,43.16
2018-06-28T17:15:28.080Z,43.31
2018-06-28T17:17:56.440Z,42.73
2018-06-28T17:20:24.884Z,43.21
2018-06-28T17:22:53.729Z,43.27
2018-06-28T17:25:22.076Z,42.90
2018-06-28T17:27:50.631Z,43.84
2018-06-28T17:30:18.966Z,42.92
2018-06-28T17:32:47.397Z,44.07
2018-06-28T17:35:16.264Z,42.91
2018-06-28T17:37:44.657Z,43.50
2018-06-28T17:40:13.052Z,43.69
2018-06-28T17:42:41.392Z,43.27
2018-06-28T17:45:09.765Z,42.91
2018-06-28T17:47:38.178Z,43.09
2018-06-28T17:50:06.527Z,43.42
2018-06-28T17:52:34.895Z,44.05
2018-06-28T17:55:03.357Z,44.44
2018-06-28T17:57:31.736Z,43.58
2018-06-28T18:00:00.176Z,44.77
2018-06-28T18:02:28.554Z,43.83
2018-06-28T18:04:56.965Z,44.18
2018-06-28T18:07:25.295Z,44.11
2018-06-28T18:09:53.618Z,44.08
2018-06-28T18:12:21.969Z,44.00
2018-06-28T18:14:50.378Z,43.67
2018-06-28T18:17:18.727Z,43.76
2018-06-28T18:19:47.105Z,43.42
2018-06-28T18:22:15.453Z,43.86
2018-06-28T18:24:43.815Z,44.30
2018-06-28T18:27:12.201Z,44.85
2018-06-28T18:29:40.548Z,44.05
2018-06-28T18:32:08.871Z,44.04
2018-06-28T18:34:37.306Z,44.28
2018-06-28T18:37:05.788Z,44.78
2018-06-28T18:39:34.137Z,45.54
2018-06-28T18:42:02.485Z,44.68
2018-06-28T18:44:30.928Z,44.82
2018-06-28T18:46:59.278Z,44.40
2018-06-28T18:49:27.606Z,44.68
2018-06-28T18:51:56.078Z,44.92
2018-06-28T18:54:24.525Z,44.27
2018-06-28T18:56:52.946Z,45.18
2018-06-28T18:59:21.407Z,44.63
2018-06-28T19:01:49.785Z,45.30
2018-06-28T19:04:18.136Z,44.45
2018-06-28T19:06:46.532Z,45.10
2018-06-28T19:09:14.838Z,44.94
2018-06-28T19:11:43.231Z,45.23
2018-06-28T19:14:17.099Z,45.16
2018-06-28T19:16:50.866Z,44.59
2018-06-28T19:19:19.220Z,44.57
2018-06-28T19:21:52.931Z,44.92
2018-06-28T19:24:21.243Z,45.55
2018-06-28T19:26:49.707Z,45.57
2018-06-28T19:29:23.255Z,44.87
2018-06-28T19:31:56.960Z,45.37
2018-06-28T19:34:25.290Z,45.33
2018-06-28T19:36:54.283Z,45.29
2018-06-28T19:39:27.874Z,45.78
2018-06-28T19:42:01.566Z,45.78
2018-06-28T19:44:30.736Z,45.39
2018-06-28T19:46:59.085Z,45.86
2018-06-28T19:49:32.735Z,45.86
2018-06-28T19:52:06.234Z,45.98
2018-06-28T19:54:34.910Z,46.21
2018-06-28T19:57:03.365Z,46.22
2018-06-28T19:59:35.895Z,45.89
2018-06-28T20:02:09.631Z,45.63
2018-06-28T20:04:43.285Z,46.44
2018-06-28T20:07:11.734Z,46.35
2018-06-28T20:09:40.078Z,46.11
2018-06-28T20:12:12.540Z,45.79
2018-06-28T20:14:46.226Z,46.02
2018-06-28T20:17:19.919Z,46.35
2018-06-28T20:19:53.751Z,46.35
2018-06-28T20:22:22.098Z,46.32
2018-06-28T20:24:50.713Z,46.13
2018-06-28T20:27:24.380Z,46.51
2018-06-28T20:29:58.090Z,47.27
2018-06-28T20:32:31.931Z,47.09
2018-06-28T20:35:00.407Z,47.02
2018-06-28T20:37:28.788Z,46.62
2018-06-28T20:39:57.132Z,47.06
2018-06-28T20:42:25.543Z,47.33
2018-06-28T20:44:53.897Z,47.66
2018-06-28T20:47:22.232Z,46.91
2018-06-28T20:49:50.663Z,47.29
2018-06-28T20:52:19.032Z,47.64
2018-06-28T20:54:47.419Z,47.75
2018-06-28T20:57:15.831Z,47.45
2018-06-28T20:59:44.199Z,47.82
2018-06-28T21:02:12.543Z,47.17
2018-06-28T21:04:40.921Z,47.50
2018-06-28T21:07:09.270Z,47.84
2018-06-28T21:09:37.653Z,48.64
2018-06-28T21:12:06.115Z,47.68
2018-06-28T21:14:34.472Z,48.52
2018-06-28T21:17:02.851Z,47.97
2018-06-28T21:19:31.204Z,48.97
2018-06-28T21:21:59.547Z,49.62
2018-06-28T21:24:27.857Z,48.06
2018-06-28T21:26:56.200Z,49.26
2018-06-28T21:29:24.525Z,49.27
2018-06-28T21:31:52.876Z,48.67
2018-06-28T21:34:21.678Z,48.70
2018-06-28T21:36:50.064Z,49.10
2018-06-28T21:39:18.370Z,49.96
2018-06-28T21:41:46.702Z,49.85
2018-06-28T21:44:15.129Z,49.09
2018-06-28T21:46:43.454Z,49.45
2018-06-28T21:49:11.776Z,49.08
2018-06-28T21:51:40.095Z,49.20
2018-06-28T21:54:08.406Z,49.73
2018-06-28T21:56:36.899Z,50.09
2018-06-28T21:59:05.233Z,49.42
2018-06-28T22:01:33.575Z,49.98
2018-06-28T22:04:01.875Z,50.42
2018-06-28T22:06:30.196Z,51.01
2018-06-28T22:08:58.574Z,50.18
2018-06-28T22:11:26.891Z,50.58
2018-06-28T22:13:55.365Z,51.32
2018-06-28T22:16:23.677Z,50.15
2018-06-28T22:18:51.994Z,50.44
2018-06-28T22:21:20.295Z,50.78
2018-06-28T22:23:48.606Z,50.70
2018-06-28T22:26:16.954Z,51.13
2018-06-28T22:28:45.270Z,50.94
2018-06-28T22:31:13.612Z,51.51
2018-06-28T22:33:41.931Z,51.85
2018-06-28T22:36:10.268Z,51.29
2018-06-28T22:38:38.577Z,51.88
2018-06-28T22:41:07.154Z,51.61
2018-06-28T22:43:35.523Z,51.63
2018-06-28T22:46:03.916Z,52.36
2018-06-28T22:48:32.470Z,52.48
2018-06-28T22:51:00.790Z,52.29
2018-06-28T22:53:29.735Z,51.86
2018-06-28T22:55:58.052Z,52.50
2018-06-28T22:58:26.395Z,52.85
2018-06-28T23:00:54.740Z,52.69
2018-06-28T23:03:23.061Z,53.22
2018-06-28T23:05:51.565Z,54.32
2018-06-28T23:08:19.916Z,53.27
2018-06-28T23:10:48.291Z,52.87
2018-06-28T23:13:16.666Z,54.36
2018-06-28T23:15:44.982Z,53.44
2018-06-28T23:18:13.325Z,53.70
2018-06-28T23:20:41.765Z,54.25
2018-06-28T23:23:10.131Z,54.36
2018-06-28T23:25:38.481Z,54.63
2018-06-28T23:28:06.818Z,54.85
2018-06-28T23:30:35.191Z,54.33
2018-06-28T23:33:03.586Z,54.35
2018-06-28T23:35:31.910Z,55.26
2018-06-28T23:38:00.336Z,54.45
2018-06-28T23:40:28.698Z,56.03
2018-06-28T23:42:57.093Z,55.75
2018-06-28T23:45:25.818Z,55.23
2018-06-28T23:47:54.243Z,55.96
2018-06-28T23:50:22.564Z,55.24
2018-06-28T23:52:50.884Z,55.85
2018-06-28T23:55:19.636Z,55.18
2018-06-28T23:57:48.117Z,56.22
